Meteorología y climatología de Navarra
Datos de la estación - Meteo Navarra

Estación de Gorramendi GN

Altitud 1071 m.


Datos desde el 23/05/2020 hasta el 24/05/2020 en horario solar
Los datos son PROVISIONALES

Anterior Página 1 de 1 Siguiente Descargar: Formato para Excel 2000 o superior   Formato csv   Formato para OpenOffice Calc
Fecha Temperatura Humedad relativa Radiación global Insolación Precipitación Vel. viento 10 m Vel. viento 10 m Dir. viento 10 m
ºC % W/m² s l/m² m/s km/h º
23/05/2020 0:00 11.1 99 0.0 0 0.0 3.0 10.8 30
23/05/2020 0:10 11.1 99 0.0 0 0.0 3.4 12.3 30
23/05/2020 0:20 11.2 99 0.0 0 0.0 3.9 14.2 17
23/05/2020 0:30 11.1 99 0.0 0 0.0 4.6 16.6 22
23/05/2020 0:40 11.2 99 0.0 0 0.0 4.4 15.8 24
23/05/2020 0:50 11.1 99 0.0 0 0.0 4.3 15.5 16
23/05/2020 1:00 11.1 99 0.0 0 0.0 4.2 15.1 19
23/05/2020 1:10 11.0 99 0.0 0 0.0 3.9 14.0 16
23/05/2020 1:20 11.0 99 0.0 0 0.1 3.8 13.8 11
23/05/2020 1:30 11.2 99 0.0 0 0.0 5.1 18.2 6
23/05/2020 1:40 11.1 99 0.0 0 0.0 5.3 18.9 0
23/05/2020 1:50 11.1 99 0.0 0 0.0 5.4 19.5 357
23/05/2020 2:00 11.0 99 0.0 0 0.0 6.5 23.3 355
23/05/2020 2:10 11.1 99 0.0 0 0.0 6.6 23.7 350
23/05/2020 2:20 11.1 99 0.0 0 0.0 6.2 22.2 349
23/05/2020 2:30 11.1 99 0.0 0 0.1 7.0 25.2 348
23/05/2020 2:40 11.1 99 0.0 0 0.0 7.0 25.1 351
23/05/2020 2:50 11.1 99 0.0 0 0.0 6.4 23.0 352
23/05/2020 3:00 11.2 99 0.0 0 0.0 5.3 19.2 352
23/05/2020 3:10 11.1 99 0.0 0 0.0 6.2 22.4 352
23/05/2020 3:20 11.1 99 0.0 0 0.1 6.7 24.0 352
23/05/2020 3:30 11.1 99 0.0 0 0.0 6.4 22.9 359
23/05/2020 3:40 11.0 99 0.0 0 0.0 6.1 22.0 7
23/05/2020 3:50 11.0 99 0.0 0 0.0 5.8 20.8 8
23/05/2020 4:00 11.0 99 0.0 0 0.0 5.9 21.1 16
23/05/2020 4:10 10.9 99 0.0 0 0.1 6.1 22.0 16
23/05/2020 4:20 10.8 99 0.0 0 0.1 5.8 21.0 11
23/05/2020 4:30 10.8 99 0.0 0 0.1 5.9 21.2 19
23/05/2020 4:40 10.8 99 0.0 0 0.1 6.4 22.9 20
23/05/2020 4:50 10.7 99 0.0 0 0.0 6.0 21.6 15
23/05/2020 5:00 10.6 99 0.0 0 0.2 5.7 20.6 14
23/05/2020 5:10 10.6 99 0.0 0 0.2 5.8 21.0 23
23/05/2020 5:20 10.5 99 14.3 0 0.0 5.9 21.1 23
23/05/2020 5:30 10.5 99 25.6 0 0.0 5.5 19.6 30
23/05/2020 5:40 10.5 99 30.4 0 0.0 6.2 22.5 27
23/05/2020 5:50 10.6 99 33.1 0 0.0 5.5 19.7 30
23/05/2020 6:00 10.7 99 40.6 0 0.0 6.0 21.7 26
23/05/2020 6:10 10.6 99 42.7 0 0.0 5.5 19.7 27
23/05/2020 6:20 10.6 99 49.9 0 0.0 5.6 20.2 28
23/05/2020 6:30 10.6 99 45.1 0 0.0 5.9 21.3 20
23/05/2020 6:40 10.7 99 70.6 0 0.0 5.4 19.5 21
23/05/2020 6:50 10.7 99 105.5 0 0.0 5.1 18.5 30
23/05/2020 7:00 10.8 99 112.8 0 0.0 5.0 18.1 23
23/05/2020 7:10 10.9 99 93.7 0 0.0 5.0 18.1 21
23/05/2020 7:20 10.9 99 97.9 0 0.1 4.4 15.8 23
23/05/2020 7:30 11.0 99 129.7 0 0.1 5.0 17.8 18
23/05/2020 7:40 11.0 99 158.5 0 0.1 4.7 16.9 23
23/05/2020 7:50 10.7 99 130.7 0 0.1 5.2 18.6 29
23/05/2020 8:00 10.6 99 215.5 0 0.0 4.9 17.7 35
23/05/2020 8:10 10.6 99 187.8 0 0.0 5.3 18.9 32
23/05/2020 8:20 10.7 99 167.0 0 0.1 5.3 19.1 24
23/05/2020 8:30 10.7 99 163.7 0 0.1 5.6 20.0 21
23/05/2020 8:40 10.7 99 209.4 0 0.1 6.4 23.1 23
23/05/2020 8:50 10.7 99 204.4 0 0.1 6.7 24.2 22
23/05/2020 9:00 10.3 99 198.8 0 0.3 8.6 30.8 26
23/05/2020 9:10 9.7 99 198.7 0 0.2 9.5 34.2 27
23/05/2020 9:20 9.4 99 179.2 0 0.0 8.9 32.0 27
23/05/2020 9:30 9.3 99 184.5 0 0.1 9.0 32.2 26
23/05/2020 9:40 9.4 99 188.3 0 0.0 9.3 33.5 24
23/05/2020 9:50 9.0 99 169.1 0 0.5 10.9 39.1 20
23/05/2020 10:00 8.0 99 256.8 0 0.0 10.4 37.6 37
23/05/2020 10:10 7.7 99 260.9 0 0.1 11.0 39.5 35
23/05/2020 10:20 7.6 99 237.5 0 0.0 9.7 34.8 33
23/05/2020 10:30 7.8 99 246.8 0 0.0 8.7 31.2 34
23/05/2020 10:40 8.1 99 274.1 0 0.0 9.0 32.4 28
23/05/2020 10:50 8.1 99 294.6 0 0.0 8.1 29.0 28
23/05/2020 11:00 8.2 99 331.8 0 0.0 7.7 27.6 30
23/05/2020 11:10 8.2 99 358.3 0 0.0 6.5 23.3 34
23/05/2020 11:20 8.6 99 397.7 0 0.0 5.4 19.5 37
23/05/2020 11:30 8.3 99 306.4 0 0.0 5.7 20.6 42
23/05/2020 11:40 8.2 99 288.6 0 0.0 6.0 21.5 41
23/05/2020 11:50 8.1 99 340.9 0 0.0 6.6 23.9 41
23/05/2020 12:00 8.1 99 451.7 74 0.0 6.9 24.7 47
23/05/2020 12:10 8.2 99 462.9 190 0.0 6.2 22.4 45
23/05/2020 12:20 8.3 99 507.0 382 0.0 7.4 26.6 45
23/05/2020 12:30 8.2 99 393.5 0 0.0 7.1 25.4 51
23/05/2020 12:40 8.3 99 309.8 0 0.0 6.2 22.3 39
23/05/2020 12:50 8.3 99 353.4 0 0.0 5.8 20.9 32
23/05/2020 13:00 8.3 99 240.3 0 0.1 5.9 21.3 30
23/05/2020 13:10 7.9 99 224.2 0 0.2 5.7 20.6 40
23/05/2020 13:20 8.1 99 253.1 0 0.2 5.3 19.1 33
23/05/2020 13:30 8.0 99 249.0 0 0.1 7.5 27.1 30
23/05/2020 13:40 7.3 99 271.4 0 0.1 7.5 26.8 36
23/05/2020 13:50 7.4 99 514.3 454 0.0 7.1 25.5 46
23/05/2020 14:00 7.7 99 634.2 600 0.0 7.8 28.0 47
23/05/2020 14:10 7.6 99 388.3 274 0.0 8.0 28.9 49
23/05/2020 14:20 7.1 99 281.3 0 0.0 8.9 31.9 52
23/05/2020 14:30 7.0 99 289.2 0 0.0 8.1 29.1 50
23/05/2020 14:40 7.5 99 304.8 0 0.0 8.6 31.0 59
23/05/2020 14:50 7.6 99 293.8 0 0.0 8.6 31.0 55
23/05/2020 15:00 7.6 99 274.5 0 0.0 8.1 29.2 45
23/05/2020 15:10 7.6 99 257.8 0 0.0 7.4 26.6 40
23/05/2020 15:20 7.5 99 338.2 0 0.0 7.4 26.6 49
23/05/2020 15:30 7.5 99 325.6 52 0.0 6.3 22.8 47
23/05/2020 15:40 7.6 99 327.5 170 0.0 7.2 25.8 50
23/05/2020 15:50 7.9 99 305.3 72 0.0 6.8 24.3 49
23/05/2020 16:00 8.0 99 297.4 104 0.0 6.1 21.9 45
23/05/2020 16:10 8.1 99 223.2 0 0.0 5.7 20.6 40
23/05/2020 16:20 8.0 99 182.5 0 0.0 5.8 20.7 41
23/05/2020 16:30 8.1 99 214.4 100 0.0 5.9 21.3 49
23/05/2020 16:40 8.1 99 231.2 58 0.0 5.6 20.0 46
23/05/2020 16:50 8.6 99 229.4 214 0.0 5.0 18.1 56
23/05/2020 17:00 8.4 99 119.5 0 0.0 5.9 21.1 57
23/05/2020 17:10 8.3 99 111.7 0 0.0 5.3 19.0 54
23/05/2020 17:20 8.2 99 105.9 0 0.0 6.2 22.2 40
23/05/2020 17:30 8.0 99 90.4 0 0.0 6.8 24.5 41
23/05/2020 17:40 8.1 99 83.6 0 0.0 7.1 25.6 44
23/05/2020 17:50 8.2 99 83.3 0 0.0 6.4 23.2 46
23/05/2020 18:00 8.3 99 51.9 0 0.0 6.6 23.7 42
23/05/2020 18:10 8.1 99 50.5 0 0.0 6.5 23.5 54
23/05/2020 18:20 8.0 99 47.5 0 0.0 7.2 25.9 57
23/05/2020 18:30 7.9 99 43.3 0 0.0 7.3 26.4 63
23/05/2020 18:40 7.9 99 22.3 0 0.0 7.6 27.2 51
23/05/2020 18:50 7.9 99 5.5 0 0.0 6.9 24.8 53
23/05/2020 19:00 8.1 99 0.0 0 0.0 6.4 23.0 54
23/05/2020 19:10 8.1 99 0.0 0 0.0 6.3 22.8 57
23/05/2020 19:20 8.0 99 0.0 0 0.0 6.1 22.0 47
23/05/2020 19:30 8.0 99 0.0 0 0.0 6.2 22.4 54
23/05/2020 19:40 7.9 99 0.0 0 0.0 6.4 23.2 57
23/05/2020 19:50 7.9 99 0.0 0 0.0 5.9 21.2 61
23/05/2020 20:00 7.9 99 0.0 0 0.0 6.5 23.3 63
23/05/2020 20:10 7.7 99 0.0 0 0.0 6.8 24.6 65
23/05/2020 20:20 7.6 99 0.0 0 0.0 6.8 24.4 65
23/05/2020 20:30 7.7 99 0.0 0 0.0 6.7 24.2 66
23/05/2020 20:40 7.6 99 0.0 0 0.0 7.1 25.6 64
23/05/2020 20:50 7.4 99 0.0 0 0.0 7.3 26.2 65
23/05/2020 21:00 7.4 99 0.0 0 0.0 7.8 27.9 67
23/05/2020 21:10 7.3 99 0.0 0 0.0 8.2 29.7 64
23/05/2020 21:20 7.4 99 0.0 0 0.0 7.4 26.8 69
23/05/2020 21:30 7.2 99 0.0 0 0.0 8.8 31.8 76
23/05/2020 21:40 7.2 99 0.0 0 0.0 8.5 30.6 73
23/05/2020 21:50 7.0 99 0.0 0 0.0 8.8 31.7 72
23/05/2020 22:00 7.0 99 0.0 0 0.0 8.5 30.7 74
23/05/2020 22:10 7.0 99 0.0 0 0.0 8.9 31.9 73
23/05/2020 22:20 7.0 99 0.0 0 0.0 8.8 31.7 67
23/05/2020 22:30 6.9 99 0.0 0 0.0 9.0 32.5 61
23/05/2020 22:40 7.0 99 0.0 0 0.0 7.7 27.8 67
23/05/2020 22:50 7.2 99 0.0 0 0.0 8.5 30.7 73
23/05/2020 23:00 7.1 99 0.0 0 0.0 9.8 35.4 76
23/05/2020 23:10 7.0 99 0.0 0 0.0 9.2 33.1 74
23/05/2020 23:20 7.0 99 0.0 0 0.0 9.7 34.8 75
23/05/2020 23:30 6.9 99 0.0 0 0.0 9.2 33.0 74
23/05/2020 23:40 6.7 99 0.0 0 0.0 9.2 33.2 71
23/05/2020 23:50 6.7 99 0.0 0 0.0 9.0 32.5 72
Anterior Página 1 de 1 Siguiente
Los datos de precipitación registrados en estaciones que están en cumbres son inferiores a lo real, como consecuencia del efecto del viento y de la nieve.


NOTA: Tipo de datos según el color:
   - Valores diarios o 10 minutos correctos
   - Valores diarios calculados a partir de un número de datos 10 minutos menor que 144 y mayor que 120, o de un número de datos semihorarios menor que 48 y mayor que 40 (caso de las estaciones de INTIA y del Ministerio)
   - Valores diez minutos estimados


Contacto        Enlaces        Aviso legal